createdAt,value
2023-01-07T00:00:52.853Z,22.40
2023-01-07T00:03:20.655Z,22.40
2023-01-07T00:05:48.342Z,22.30
2023-01-07T00:08:16.003Z,22.30
2023-01-07T00:10:44.963Z,22.30
2023-01-07T00:13:12.652Z,22.30
2023-01-07T00:15:40.375Z,22.30
2023-01-07T00:18:08.056Z,22.30
2023-01-07T00:20:35.723Z,22.30
2023-01-07T00:23:03.454Z,22.30
2023-01-07T00:25:31.314Z,22.30
2023-01-07T00:28:00.302Z,22.20
2023-01-07T00:30:28.054Z,22.20
2023-01-07T00:33:04.580Z,22.20
2023-01-07T00:35:33.049Z,22.20
2023-01-07T00:38:00.768Z,22.20
2023-01-07T00:40:28.451Z,22.20
2023-01-07T00:42:55.232Z,22.10
2023-01-07T00:45:24.495Z,22.10
2023-01-07T00:47:53.413Z,22.10
2023-01-07T00:50:21.326Z,22.10
2023-01-07T00:52:49.007Z,22.10
2023-01-07T00:55:16.940Z,22.10
2023-01-07T00:57:44.625Z,22.10
2023-01-07T01:00:15.921Z,22.10
2023-01-07T01:02:44.927Z,22.10
2023-01-07T01:05:12.643Z,22.10
2023-01-07T01:07:40.428Z,22.00
2023-01-07T01:10:09.530Z,22.00
2023-01-07T01:12:37.361Z,22.00
2023-01-07T01:15:05.846Z,22.00
2023-01-07T01:17:33.908Z,22.10
2023-01-07T01:20:03.113Z,22.10
2023-01-07T01:22:30.903Z,22.10
2023-01-07T01:24:58.572Z,22.10
2023-01-07T01:27:26.239Z,22.00
2023-01-07T01:29:53.927Z,22.00
2023-01-07T01:32:21.653Z,22.10
2023-01-07T01:34:49.336Z,22.00
2023-01-07T01:37:18.398Z,22.00
2023-01-07T01:39:46.189Z,22.00
2023-01-07T01:42:14.253Z,22.00
2023-01-07T01:44:46.733Z,22.00
2023-01-07T01:47:23.205Z,22.00
2023-01-07T01:49:54.977Z,22.00
2023-01-07T01:52:25.621Z,21.90
2023-01-07T01:54:55.664Z,21.90
2023-01-07T01:57:23.411Z,21.90
2023-01-07T01:59:54.915Z,21.90
2023-01-07T02:02:26.428Z,21.90
2023-01-07T02:04:54.281Z,21.90
2023-01-07T02:07:22.127Z,21.90
2023-01-07T02:10:00.901Z,21.90
2023-01-07T02:12:37.769Z,21.90
2023-01-07T02:15:10.136Z,21.90
2023-01-07T02:17:45.946Z,21.90
2023-01-07T02:20:47.747Z,21.90
2023-01-07T02:23:36.232Z,21.90
2023-01-07T02:26:44.530Z,21.80
2023-01-07T02:29:36.326Z,21.80
2023-01-07T02:32:11.748Z,21.80
2023-01-07T02:34:41.285Z,21.80
2023-01-07T02:37:11.711Z,21.80
2023-01-07T02:39:46.304Z,21.80
2023-01-07T02:42:16.842Z,21.80
2023-01-07T02:44:49.102Z,21.80
2023-01-07T02:47:19.213Z,21.80
2023-01-07T02:49:47.633Z,21.70
2023-01-07T02:52:21.571Z,21.70
2023-01-07T02:54:50.594Z,21.70
2023-01-07T02:57:32.699Z,21.70
2023-01-07T03:00:08.134Z,21.70
2023-01-07T03:02:59.371Z,21.70
2023-01-07T03:05:36.663Z,21.70
2023-01-07T03:08:14.030Z,21.80
2023-01-07T03:10:44.666Z,21.70
2023-01-07T03:13:14.060Z,21.70
2023-01-07T03:15:44.302Z,21.70
2023-01-07T03:18:16.459Z,21.70
2023-01-07T03:20:44.693Z,21.70
2023-01-07T03:23:13.008Z,21.70
2023-01-07T03:25:41.889Z,21.70
2023-01-07T03:28:10.271Z,21.70
2023-01-07T03:30:38.501Z,21.60
2023-01-07T03:33:08.769Z,21.60
2023-01-07T03:35:37.809Z,21.60
2023-01-07T03:38:05.508Z,21.60
2023-01-07T03:40:33.455Z,21.60
2023-01-07T03:43:00.223Z,21.60
2023-01-07T03:45:28.468Z,21.60
2023-01-07T03:47:59.116Z,21.60
2023-01-07T03:50:33.844Z,21.60
2023-01-07T03:53:02.903Z,21.60
2023-01-07T03:55:33.690Z,21.60
2023-01-07T03:58:01.467Z,21.50
2023-01-07T04:00:29.161Z,21.50
2023-01-07T04:03:04.930Z,21.60
2023-01-07T04:05:37.321Z,21.50
2023-01-07T04:08:06.736Z,21.50
2023-01-07T04:10:37.923Z,21.60
2023-01-07T04:13:05.684Z,21.50
2023-01-07T04:15:33.628Z,21.50
2023-01-07T04:18:01.348Z,21.50
2023-01-07T04:20:29.774Z,21.50
2023-01-07T04:22:57.448Z,21.50
2023-01-07T04:25:26.540Z,21.50
2023-01-07T04:27:55.197Z,21.50
2023-01-07T04:30:23.329Z,21.50
2023-01-07T04:32:51.282Z,21.40
2023-01-07T04:35:19.225Z,21.40
2023-01-07T04:37:46.946Z,21.40
2023-01-07T04:40:14.676Z,21.40
2023-01-07T04:42:43.668Z,21.40
2023-01-07T04:45:12.122Z,21.40
2023-01-07T04:47:39.809Z,21.40
2023-01-07T04:50:08.390Z,21.40
2023-01-07T04:52:37.505Z,21.40
2023-01-07T04:55:06.773Z,21.40
2023-01-07T04:57:34.687Z,21.30
2023-01-07T05:00:04.185Z,21.30
2023-01-07T05:02:31.963Z,21.30
2023-01-07T05:04:59.959Z,21.30
2023-01-07T05:07:27.701Z,21.30
2023-01-07T05:09:55.504Z,21.30
2023-01-07T05:12:23.180Z,21.30
2023-01-07T05:14:50.981Z,21.30
2023-01-07T05:17:20.939Z,21.30
2023-01-07T05:19:48.931Z,21.30
2023-01-07T05:22:17.133Z,21.30
2023-01-07T05:24:44.807Z,21.30
2023-01-07T05:27:12.823Z,21.30
2023-01-07T05:29:41.612Z,21.30
2023-01-07T05:32:09.379Z,21.20
2023-01-07T05:34:40.846Z,21.20
2023-01-07T05:37:09.176Z,21.20
2023-01-07T05:39:37.400Z,21.20
2023-01-07T05:42:06.390Z,21.20
2023-01-07T05:44:34.605Z,21.20
2023-01-07T05:47:02.767Z,21.20
2023-01-07T05:49:30.433Z,21.20
2023-01-07T05:51:59.420Z,21.20
2023-01-07T05:54:27.136Z,21.20
2023-01-07T05:56:54.804Z,21.20
2023-01-07T05:59:22.845Z,21.20
2023-01-07T06:01:50.528Z,21.20
2023-01-07T06:04:18.341Z,21.10
2023-01-07T06:06:46.044Z,21.20
2023-01-07T06:09:15.220Z,21.10
2023-01-07T06:11:43.007Z,21.10
2023-01-07T06:14:10.765Z,21.10
2023-01-07T06:16:38.468Z,21.10
2023-01-07T06:19:06.165Z,21.10
2023-01-07T06:21:33.854Z,21.10
2023-01-07T06:24:01.598Z,21.10
2023-01-07T06:26:30.645Z,21.10
2023-01-07T06:28:58.370Z,21.10
2023-01-07T06:31:26.160Z,21.10
2023-01-07T06:33:53.860Z,21.10
2023-01-07T06:36:21.540Z,21.10
2023-01-07T06:38:49.286Z,21.10
2023-01-07T06:41:16.966Z,21.00
2023-01-07T06:43:45.972Z,21.00
2023-01-07T06:46:13.744Z,21.00
2023-01-07T06:48:41.444Z,21.00
2023-01-07T06:51:09.104Z,21.00
2023-01-07T06:53:36.777Z,21.00
2023-01-07T06:56:04.674Z,21.00
2023-01-07T06:58:32.400Z,21.00
2023-01-07T07:01:05.849Z,21.00
2023-01-07T07:03:33.616Z,21.00
2023-01-07T07:06:01.350Z,21.00
2023-01-07T07:08:29.100Z,21.00
2023-01-07T07:10:56.752Z,21.00
2023-01-07T07:13:24.423Z,21.00
2023-01-07T07:15:52.208Z,21.00
2023-01-07T07:18:21.476Z,21.00
2023-01-07T07:20:49.310Z,21.00
2023-01-07T07:23:17.011Z,20.90
2023-01-07T07:25:44.729Z,20.90
2023-01-07T07:28:12.449Z,20.90
2023-01-07T07:30:45.827Z,20.90
2023-01-07T07:33:15.589Z,20.90
2023-01-07T07:35:45.012Z,20.90
2023-01-07T07:38:12.715Z,20.90
2023-01-07T07:40:40.414Z,20.90
2023-01-07T07:43:11.326Z,20.90
2023-01-07T07:45:40.316Z,20.90
2023-01-07T07:48:08.126Z,20.90
2023-01-07T07:50:35.846Z,20.90
2023-01-07T07:53:04.952Z,20.80
2023-01-07T07:55:32.645Z,20.80
2023-01-07T07:58:00.438Z,20.80
2023-01-07T08:00:28.187Z,20.80
2023-01-07T08:02:58.526Z,20.80
2023-01-07T08:05:26.492Z,20.80
2023-01-07T08:07:54.343Z,20.80
2023-01-07T08:10:23.398Z,20.80
2023-01-07T08:12:51.378Z,20.80
2023-01-07T08:15:19.243Z,20.80
2023-01-07T08:17:46.904Z,20.80
2023-01-07T08:20:14.704Z,20.80
2023-01-07T08:22:42.400Z,20.80
2023-01-07T08:25:10.778Z,20.80
2023-01-07T08:27:39.861Z,20.80
2023-01-07T08:30:08.490Z,20.80
2023-01-07T08:32:36.931Z,20.90
2023-01-07T08:35:04.913Z,20.80
2023-01-07T08:37:32.598Z,20.80
2023-01-07T08:40:00.308Z,20.80
2023-01-07T08:42:29.320Z,20.80
2023-01-07T08:44:58.331Z,21.30
2023-01-07T08:47:27.782Z,21.60
2023-01-07T08:49:55.488Z,21.80
2023-01-07T08:52:23.173Z,22.00
2023-01-07T08:54:50.918Z,22.20
2023-01-07T08:57:19.067Z,22.40
2023-01-07T08:59:46.721Z,22.60
2023-01-07T09:02:16.557Z,22.70
2023-01-07T09:04:44.529Z,22.80
2023-01-07T09:07:12.377Z,22.90
2023-01-07T09:09:41.170Z,23.00
2023-01-07T09:12:10.919Z,23.00
2023-01-07T09:14:38.889Z,23.00
2023-01-07T09:17:06.529Z,23.10
2023-01-07T09:19:35.541Z,23.10
2023-01-07T09:22:03.203Z,23.20
2023-01-07T09:24:30.902Z,23.20
2023-01-07T09:26:58.558Z,23.30
2023-01-07T09:29:26.220Z,23.30
2023-01-07T09:31:54.052Z,23.40
2023-01-07T09:34:21.872Z,23.40
2023-01-07T09:36:50.836Z,23.40
2023-01-07T09:39:18.510Z,23.40
2023-01-07T09:41:50.352Z,23.40
2023-01-07T09:44:21.841Z,23.40
2023-01-07T09:46:49.569Z,23.40
2023-01-07T09:49:19.388Z,23.40
2023-01-07T09:51:48.699Z,23.40
2023-01-07T09:54:22.445Z,23.40
2023-01-07T09:56:50.147Z,23.30
2023-01-07T09:59:17.857Z,23.20
2023-01-07T10:01:47.655Z,23.20
2023-01-07T10:04:24.032Z,23.10
2023-01-07T10:06:56.372Z,23.10
2023-01-07T10:09:30.405Z,23.10
2023-01-07T10:12:02.920Z,22.90
2023-01-07T10:14:58.702Z,22.90
2023-01-07T10:17:30.804Z,22.80
2023-01-07T10:20:00.241Z,22.60
2023-01-07T10:22:31.754Z,22.70
2023-01-07T10:25:02.635Z,22.40
2023-01-07T10:27:33.211Z,22.30
2023-01-07T10:30:02.834Z,22.30
2023-01-07T10:32:32.946Z,22.30
2023-01-07T10:35:01.202Z,22.30
2023-01-07T10:37:30.199Z,22.30
2023-01-07T10:40:04.412Z,22.20
2023-01-07T10:42:33.195Z,22.20
2023-01-07T10:45:33.052Z,22.10
2023-01-07T10:48:15.116Z,22.00
2023-01-07T10:50:54.180Z,21.80
2023-01-07T10:53:27.330Z,21.80
2023-01-07T10:55:59.345Z,21.80
2023-01-07T10:58:27.528Z,21.70
2023-01-07T11:00:55.353Z,21.70
2023-01-07T11:03:24.235Z,21.70
2023-01-07T11:05:54.813Z,21.80
2023-01-07T11:08:29.897Z,21.60
2023-01-07T11:10:58.926Z,21.50
2023-01-07T11:13:28.418Z,21.30
2023-01-07T11:15:57.083Z,21.50
2023-01-07T11:18:27.099Z,21.60
2023-01-07T11:20:55.323Z,21.70
2023-01-07T11:23:29.872Z,21.80
2023-01-07T11:26:08.823Z,21.90
2023-01-07T11:28:36.520Z,22.00
2023-01-07T11:31:04.194Z,22.10
2023-01-07T11:34:04.172Z,22.20
2023-01-07T11:36:39.994Z,22.30
2023-01-07T11:39:11.140Z,22.30
2023-01-07T11:41:40.153Z,22.30
2023-01-07T11:44:16.025Z,22.40
2023-01-07T11:46:44.995Z,22.40
2023-01-07T11:49:22.233Z,22.40
2023-01-07T11:51:49.999Z,22.50
2023-01-07T11:54:20.947Z,22.60
2023-01-07T11:56:49.952Z,22.50
2023-01-07T11:59:27.231Z,22.50
2023-01-07T12:01:55.658Z,22.50
2023-01-07T12:04:24.770Z,22.50
2023-01-07T12:06:53.166Z,22.50
2023-01-07T12:09:28.767Z,22.50
2023-01-07T12:11:58.737Z,22.60
2023-01-07T12:14:28.309Z,22.50
2023-01-07T12:16:56.488Z,22.50
2023-01-07T12:19:32.831Z,22.60
2023-01-07T12:22:12.248Z,22.60
2023-01-07T12:24:53.736Z,22.50
2023-01-07T12:27:29.556Z,22.60
2023-01-07T12:30:03.349Z,22.50
2023-01-07T12:32:37.792Z,22.50
2023-01-07T12:35:14.676Z,22.50
2023-01-07T12:37:44.574Z,22.50
2023-01-07T12:40:22.479Z,22.50
2023-01-07T12:42:53.817Z,22.50
2023-01-07T12:45:23.807Z,22.50
2023-01-07T12:47:53.253Z,22.50
2023-01-07T12:50:23.990Z,22.50
2023-01-07T12:52:52.624Z,22.40
2023-01-07T12:55:21.662Z,22.40
2023-01-07T12:57:57.665Z,22.40
2023-01-07T13:00:26.343Z,22.40
2023-01-07T13:02:56.956Z,22.40
2023-01-07T13:05:26.110Z,22.30
2023-01-07T13:07:55.651Z,22.30
2023-01-07T13:10:25.682Z,22.30
2023-01-07T13:12:56.830Z,22.30
2023-01-07T13:15:27.327Z,22.20
2023-01-07T13:17:55.909Z,22.20
2023-01-07T13:20:35.724Z,22.10
2023-01-07T13:23:03.605Z,22.10
2023-01-07T13:25:38.473Z,22.10
2023-01-07T13:28:18.591Z,22.10
2023-01-07T13:30:48.931Z,22.10
2023-01-07T13:33:18.674Z,22.00
2023-01-07T13:36:07.315Z,22.00
2023-01-07T13:38:42.706Z,22.10
2023-01-07T13:41:27.443Z,22.10
2023-01-07T13:44:05.522Z,22.20
2023-01-07T13:46:33.997Z,22.20
2023-01-07T13:49:01.764Z,22.20
2023-01-07T13:51:30.837Z,22.30
2023-01-07T13:53:58.634Z,22.20
2023-01-07T13:56:37.307Z,22.20
2023-01-07T13:59:21.299Z,22.30
2023-01-07T14:02:17.018Z,22.30
2023-01-07T14:04:48.957Z,22.30
2023-01-07T14:07:16.639Z,22.30
2023-01-07T14:09:44.494Z,22.30
2023-01-07T14:12:46.543Z,22.30
2023-01-07T14:15:42.535Z,22.30
2023-01-07T14:18:38.788Z,22.00
2023-01-07T14:21:11.864Z,22.00
2023-01-07T14:23:41.717Z,22.00
2023-01-07T14:26:16.162Z,22.00
2023-01-07T14:29:00.653Z,22.00
2023-01-07T14:31:30.316Z,21.90
2023-01-07T14:33:59.043Z,21.80
2023-01-07T14:36:28.102Z,21.80
2023-01-07T14:38:59.024Z,21.60
2023-01-07T14:41:26.772Z,21.70
2023-01-07T14:44:02.888Z,21.70
2023-01-07T14:46:50.443Z,21.70
2023-01-07T14:49:38.512Z,21.70
2023-01-07T14:52:09.093Z,21.70
2023-01-07T14:54:55.829Z,21.60
2023-01-07T14:57:27.687Z,21.60
2023-01-07T15:00:24.751Z,21.60
2023-01-07T15:03:32.570Z,21.60
2023-01-07T15:06:09.691Z,21.50
2023-01-07T15:09:15.834Z,21.50
2023-01-07T15:12:00.999Z,21.50
2023-01-07T15:14:48.375Z,21.50
2023-01-07T15:17:16.705Z,21.50
2023-01-07T15:19:45.783Z,21.10
2023-01-07T15:22:28.366Z,21.10
2023-01-07T15:24:58.672Z,21.20
2023-01-07T15:27:29.897Z,21.30
2023-01-07T15:30:01.364Z,21.30
2023-01-07T15:32:34.614Z,21.30
2023-01-07T15:35:08.278Z,21.20
2023-01-07T15:37:36.013Z,21.20
2023-01-07T15:40:03.737Z,21.00
2023-01-07T15:42:32.806Z,21.40
2023-01-07T15:45:00.474Z,21.60
2023-01-07T15:47:30.753Z,21.60
2023-01-07T15:49:58.501Z,21.30
2023-01-07T15:52:28.240Z,21.30
2023-01-07T15:54:55.968Z,21.50
2023-01-07T15:57:26.152Z,21.50
2023-01-07T15:59:54.020Z,21.70
2023-01-07T16:02:24.692Z,21.70
2023-01-07T16:04:52.930Z,21.70
2023-01-07T16:07:26.692Z,21.80
2023-01-07T16:09:55.827Z,21.80
2023-01-07T16:12:30.815Z,21.80
2023-01-07T16:14:58.573Z,21.90
2023-01-07T16:17:27.206Z,21.80
2023-01-07T16:20:10.484Z,21.90
2023-01-07T16:22:38.222Z,21.90
2023-01-07T16:25:11.525Z,21.90
2023-01-07T16:27:39.221Z,21.90
2023-01-07T16:30:14.546Z,21.90
2023-01-07T16:32:42.600Z,21.90
2023-01-07T16:35:11.323Z,21.90
2023-01-07T16:37:39.333Z,22.00
2023-01-07T16:40:13.122Z,21.90
2023-01-07T16:42:41.471Z,21.90
2023-01-07T16:45:20.399Z,21.70
2023-01-07T16:47:54.248Z,21.70
2023-01-07T16:50:38.715Z,21.80
2023-01-07T16:53:21.695Z,21.90
2023-01-07T16:55:51.480Z,21.90
2023-01-07T16:58:26.754Z,22.00
2023-01-07T17:00:55.178Z,22.10
2023-01-07T17:03:23.003Z,22.20
2023-01-07T17:06:01.403Z,22.20
2023-01-07T17:08:29.114Z,22.30
2023-01-07T17:11:00.112Z,22.40
2023-01-07T17:13:33.853Z,22.40
2023-01-07T17:16:29.185Z,22.50
2023-01-07T17:18:56.954Z,22.60
2023-01-07T17:21:39.765Z,22.60
2023-01-07T17:24:24.299Z,22.70
2023-01-07T17:26:53.357Z,22.70
2023-01-07T17:29:21.067Z,22.70
2023-01-07T17:31:48.833Z,22.80
2023-01-07T17:34:17.991Z,22.80
2023-01-07T17:36:45.699Z,22.80
2023-01-07T17:39:13.387Z,22.80
2023-01-07T17:41:58.556Z,22.90
2023-01-07T17:44:27.605Z,22.90
2023-01-07T17:46:55.256Z,22.90
2023-01-07T17:49:22.905Z,22.90
2023-01-07T17:51:53.217Z,23.00
2023-01-07T17:54:22.957Z,23.00
2023-01-07T17:56:50.858Z,23.00
2023-01-07T17:59:19.614Z,23.00
2023-01-07T18:01:48.912Z,23.00
2023-01-07T18:04:17.545Z,23.10
2023-01-07T18:06:45.541Z,23.20
2023-01-07T18:09:13.580Z,23.20
2023-01-07T18:12:00.203Z,23.20
2023-01-07T18:14:27.890Z,23.20
2023-01-07T18:16:57.018Z,23.30
2023-01-07T18:19:24.757Z,23.40
2023-01-07T18:21:52.828Z,23.40
2023-01-07T18:24:21.402Z,23.50
2023-01-07T18:26:49.127Z,23.50
2023-01-07T18:29:16.833Z,23.60
2023-01-07T18:31:45.096Z,23.60
2023-01-07T18:34:15.410Z,23.70
2023-01-07T18:36:43.209Z,23.70
2023-01-07T18:39:11.383Z,23.80
2023-01-07T18:41:39.642Z,23.90
2023-01-07T18:44:07.401Z,23.90
2023-01-07T18:46:35.077Z,24.00
2023-01-07T18:49:02.759Z,24.00
2023-01-07T18:51:31.770Z,24.10
2023-01-07T18:53:59.447Z,24.20
2023-01-07T18:56:27.123Z,24.20
2023-01-07T18:58:54.891Z,24.30
2023-01-07T19:01:22.699Z,24.30
2023-01-07T19:03:50.535Z,24.30
2023-01-07T19:06:18.225Z,24.40
2023-01-07T19:08:47.220Z,24.40
2023-01-07T19:11:15.265Z,24.50
2023-01-07T19:13:42.955Z,24.50
2023-01-07T19:16:11.829Z,24.60
2023-01-07T19:18:39.644Z,24.70
2023-01-07T19:21:08.728Z,24.70
2023-01-07T19:23:36.422Z,24.80
2023-01-07T19:26:06.771Z,24.80
2023-01-07T19:28:34.477Z,24.90
2023-01-07T19:31:05.055Z,25.00
2023-01-07T19:33:32.778Z,25.10
2023-01-07T19:36:04.136Z,25.20
2023-01-07T19:38:31.857Z,25.20
2023-01-07T19:40:59.556Z,25.20
2023-01-07T19:43:28.549Z,25.30
2023-01-07T19:45:56.806Z,25.40
2023-01-07T19:48:24.902Z,25.50
2023-01-07T19:50:56.712Z,25.50
2023-01-07T19:53:24.411Z,25.60
2023-01-07T19:55:52.228Z,25.60
2023-01-07T19:58:19.851Z,25.70
2023-01-07T20:00:48.994Z,25.80
2023-01-07T20:03:16.932Z,25.90
2023-01-07T20:05:44.631Z,25.90
2023-01-07T20:08:12.305Z,26.00
2023-01-07T20:10:39.985Z,26.10
2023-01-07T20:13:07.706Z,26.10
2023-01-07T20:15:35.361Z,26.20
2023-01-07T20:18:04.620Z,26.30
2023-01-07T20:20:32.331Z,26.30
2023-01-07T20:23:00.008Z,26.40
2023-01-07T20:25:27.697Z,26.50
2023-01-07T20:27:55.525Z,26.50
2023-01-07T20:30:24.113Z,26.60
2023-01-07T20:32:51.776Z,26.70
2023-01-07T20:35:22.564Z,26.80
2023-01-07T20:37:50.217Z,26.90
2023-01-07T20:40:18.071Z,27.00
2023-01-07T20:42:45.750Z,27.10
2023-01-07T20:45:13.475Z,27.10
2023-01-07T20:47:41.343Z,27.30
2023-01-07T20:50:10.053Z,27.30
2023-01-07T20:52:39.071Z,27.40
2023-01-07T20:55:07.795Z,27.50
2023-01-07T20:57:35.440Z,27.60
2023-01-07T21:00:03.136Z,27.70
2023-01-07T21:02:30.961Z,27.80
2023-01-07T21:04:58.715Z,27.80
2023-01-07T21:07:26.372Z,28.00
2023-01-07T21:09:55.387Z,28.10
2023-01-07T21:12:23.052Z,28.10
2023-01-07T21:14:50.690Z,28.20
2023-01-07T21:17:18.379Z,28.30
2023-01-07T21:19:46.035Z,28.40
2023-01-07T21:22:13.714Z,28.50
2023-01-07T21:24:41.389Z,28.60
2023-01-07T21:27:10.408Z,28.70
2023-01-07T21:29:38.040Z,28.80
2023-01-07T21:32:06.105Z,28.90
2023-01-07T21:34:33.826Z,28.90
2023-01-07T21:37:01.526Z,29.10
2023-01-07T21:39:29.193Z,29.20
2023-01-07T21:41:56.831Z,29.20
2023-01-07T21:44:25.827Z,29.30
2023-01-07T21:46:53.456Z,29.40
2023-01-07T21:49:21.240Z,29.50
2023-01-07T21:51:50.018Z,29.60
2023-01-07T21:54:17.869Z,29.70
2023-01-07T21:56:45.538Z,29.80
2023-01-07T21:59:13.220Z,29.90
2023-01-07T22:01:42.314Z,30.00
2023-01-07T22:04:10.102Z,30.10
2023-01-07T22:06:37.850Z,30.20
2023-01-07T22:09:06.383Z,30.20
2023-01-07T22:11:35.125Z,30.30
2023-01-07T22:14:02.958Z,30.50
2023-01-07T22:16:31.277Z,30.50
2023-01-07T22:19:01.139Z,30.60
2023-01-07T22:21:28.818Z,30.70
2023-01-07T22:23:56.472Z,30.80
2023-01-07T22:26:24.126Z,30.90
2023-01-07T22:28:53.619Z,30.90
2023-01-07T22:31:22.824Z,30.90
2023-01-07T22:33:50.590Z,31.00
2023-01-07T22:36:22.001Z,31.10
2023-01-07T22:38:49.652Z,31.20
2023-01-07T22:41:17.332Z,31.20
2023-01-07T22:43:44.984Z,31.30
2023-01-07T22:46:13.265Z,31.30
2023-01-07T22:48:40.968Z,31.40
2023-01-07T22:51:10.202Z,31.40
2023-01-07T22:53:39.179Z,31.50
2023-01-07T22:56:07.435Z,31.50
2023-01-07T22:58:35.093Z,31.50
2023-01-07T23:01:13.997Z,31.50
2023-01-07T23:03:42.093Z,31.60
2023-01-07T23:06:10.044Z,31.70
2023-01-07T23:08:39.058Z,31.60
2023-01-07T23:11:07.003Z,31.70
2023-01-07T23:13:35.158Z,31.70
2023-01-07T23:16:03.085Z,31.70
2023-01-07T23:18:31.019Z,31.70
2023-01-07T23:20:58.824Z,31.70
2023-01-07T23:23:26.628Z,31.70
2023-01-07T23:25:55.740Z,31.70
2023-01-07T23:28:23.529Z,31.70
2023-01-07T23:30:51.289Z,31.70
2023-01-07T23:33:19.055Z,31.70
2023-01-07T23:35:46.909Z,31.70
2023-01-07T23:38:14.753Z,31.70
2023-01-07T23:40:42.579Z,31.70
2023-01-07T23:43:11.835Z,31.70
2023-01-07T23:45:39.571Z,31.70
2023-01-07T23:48:07.484Z,31.70
2023-01-07T23:50:35.482Z,31.70
2023-01-07T23:53:03.269Z,31.70
2023-01-07T23:55:30.997Z,31.70
2023-01-07T23:57:58.680Z,31.70
